sensor_id;sensor_type;location;lat;lon;timestamp;temperature;humidity
8595;DHT22;4335;48.860;9.198;2023-10-31T00:01:43;12.50;99.90
8595;DHT22;4335;48.860;9.198;2023-10-31T00:04:13;12.50;99.90
8595;DHT22;4335;48.860;9.198;2023-10-31T00:06:42;12.50;99.90
8595;DHT22;4335;48.860;9.198;2023-10-31T00:09:10;12.40;99.90
8595;DHT22;4335;48.860;9.198;2023-10-31T00:11:37;12.40;99.90
8595;DHT22;4335;48.860;9.198;2023-10-31T00:14:06;12.50;99.90
8595;DHT22;4335;48.860;9.198;2023-10-31T00:16:34;12.40;99.90
8595;DHT22;4335;48.860;9.198;2023-10-31T00:19:01;12.40;99.90
8595;DHT22;4335;48.860;9.198;2023-10-31T00:21:29;12.40;99.90
8595;DHT22;4335;48.860;9.198;2023-10-31T00:23:56;12.40;99.90
8595;DHT22;4335;48.860;9.198;2023-10-31T00:26:29;12.40;99.90
8595;DHT22;4335;48.860;9.198;2023-10-31T00:29:00;12.40;99.90
8595;DHT22;4335;48.860;9.198;2023-10-31T00:31:29;12.40;99.90
8595;DHT22;4335;48.860;9.198;2023-10-31T00:33:56;12.40;99.90
8595;DHT22;4335;48.860;9.198;2023-10-31T00:36:27;12.40;99.90
8595;DHT22;4335;48.860;9.198;2023-10-31T00:38:54;12.40;99.90
8595;DHT22;4335;48.860;9.198;2023-10-31T00:41:24;12.30;99.90
8595;DHT22;4335;48.860;9.198;2023-10-31T00:44:00;12.30;99.90
8595;DHT22;4335;48.860;9.198;2023-10-31T00:46:32;12.30;99.90
8595;DHT22;4335;48.860;9.198;2023-10-31T00:49:00;12.30;99.90
8595;DHT22;4335;48.860;9.198;2023-10-31T00:51:30;12.20;99.90
8595;DHT22;4335;48.860;9.198;2023-10-31T00:54:04;12.20;99.90
8595;DHT22;4335;48.860;9.198;2023-10-31T00:56:31;12.30;99.90
8595;DHT22;4335;48.860;9.198;2023-10-31T00:59:01;12.20;99.90
8595;DHT22;4335;48.860;9.198;2023-10-31T01:01:29;12.20;99.90
8595;DHT22;4335;48.860;9.198;2023-10-31T01:04:00;12.20;99.90
8595;DHT22;4335;48.860;9.198;2023-10-31T01:06:28;12.20;99.90
8595;DHT22;4335;48.860;9.198;2023-10-31T01:08:58;12.10;99.90
8595;DHT22;4335;48.860;9.198;2023-10-31T01:11:29;12.10;99.90
8595;DHT22;4335;48.860;9.198;2023-10-31T01:14:02;12.10;99.90
8595;DHT22;4335;48.860;9.198;2023-10-31T01:16:30;12.00;99.90
8595;DHT22;4335;48.860;9.198;2023-10-31T01:19:02;11.90;99.90
8595;DHT22;4335;48.860;9.198;2023-10-31T01:21:32;11.90;99.90
8595;DHT22;4335;48.860;9.198;2023-10-31T01:24:07;11.90;99.90
8595;DHT22;4335;48.860;9.198;2023-10-31T01:26:39;11.90;99.90
8595;DHT22;4335;48.860;9.198;2023-10-31T01:29:06;11.80;99.90
8595;DHT22;4335;48.860;9.198;2023-10-31T01:31:34;11.80;99.90
8595;DHT22;4335;48.860;9.198;2023-10-31T01:34:04;11.70;99.90
8595;DHT22;4335;48.860;9.198;2023-10-31T01:36:37;11.70;99.90
8595;DHT22;4335;48.860;9.198;2023-10-31T01:39:05;11.60;99.90
8595;DHT22;4335;48.860;9.198;2023-10-31T01:41:36;11.50;99.90
8595;DHT22;4335;48.860;9.198;2023-10-31T01:44:04;11.50;99.90
8595;DHT22;4335;48.860;9.198;2023-10-31T01:46:34;11.40;99.90
8595;DHT22;4335;48.860;9.198;2023-10-31T01:49:06;11.50;99.90
8595;DHT22;4335;48.860;9.198;2023-10-31T01:51:34;11.40;99.90
8595;DHT22;4335;48.860;9.198;2023-10-31T01:54:02;11.40;99.90
8595;DHT22;4335;48.860;9.198;2023-10-31T01:56:30;11.30;99.90
8595;DHT22;4335;48.860;9.198;2023-10-31T01:59:00;11.30;99.90
8595;DHT22;4335;48.860;9.198;2023-10-31T02:01:37;11.40;99.90
8595;DHT22;4335;48.860;9.198;2023-10-31T02:04:06;11.30;99.90
8595;DHT22;4335;48.860;9.198;2023-10-31T02:06:37;11.30;99.90
8595;DHT22;4335;48.860;9.198;2023-10-31T02:09:04;11.30;99.90
8595;DHT22;4335;48.860;9.198;2023-10-31T02:11:34;11.30;99.90
8595;DHT22;4335;48.860;9.198;2023-10-31T02:14:02;11.30;99.90
8595;DHT22;4335;48.860;9.198;2023-10-31T02:16:32;11.40;99.90
8595;DHT22;4335;48.860;9.198;2023-10-31T02:19:00;11.30;99.90
8595;DHT22;4335;48.860;9.198;2023-10-31T02:21:32;11.30;99.90
8595;DHT22;4335;48.860;9.198;2023-10-31T02:24:05;11.30;99.90
8595;DHT22;4335;48.860;9.198;2023-10-31T02:26:45;11.20;99.90
8595;DHT22;4335;48.860;9.198;2023-10-31T02:29:15;11.20;99.90
8595;DHT22;4335;48.860;9.198;2023-10-31T02:31:42;11.20;99.90
8595;DHT22;4335;48.860;9.198;2023-10-31T02:34:10;11.20;99.90
8595;DHT22;4335;48.860;9.198;2023-10-31T02:36:37;11.20;99.90
8595;DHT22;4335;48.860;9.198;2023-10-31T02:39:09;11.20;99.90
8595;DHT22;4335;48.860;9.198;2023-10-31T02:41:36;11.20;99.90
8595;DHT22;4335;48.860;9.198;2023-10-31T02:44:05;11.20;99.90
8595;DHT22;4335;48.860;9.198;2023-10-31T02:46:32;11.20;99.90
8595;DHT22;4335;48.860;9.198;2023-10-31T02:49:02;11.20;99.90
8595;DHT22;4335;48.860;9.198;2023-10-31T02:51:30;11.20;99.90
8595;DHT22;4335;48.860;9.198;2023-10-31T02:53:57;11.20;99.90
8595;DHT22;4335;48.860;9.198;2023-10-31T02:56:28;11.20;99.90
8595;DHT22;4335;48.860;9.198;2023-10-31T02:58:56;11.10;99.90
8595;DHT22;4335;48.860;9.198;2023-10-31T03:01:29;11.10;99.90
8595;DHT22;4335;48.860;9.198;2023-10-31T03:04:03;11.10;99.90
8595;DHT22;4335;48.860;9.198;2023-10-31T03:06:30;11.10;99.90
8595;DHT22;4335;48.860;9.198;2023-10-31T03:09:00;11.10;99.90
8595;DHT22;4335;48.860;9.198;2023-10-31T03:11:29;11.00;99.90
8595;DHT22;4335;48.860;9.198;2023-10-31T03:14:04;11.00;99.90
8595;DHT22;4335;48.860;9.198;2023-10-31T03:16:31;10.90;99.90
8595;DHT22;4335;48.860;9.198;2023-10-31T03:19:02;10.90;99.90
8595;DHT22;4335;48.860;9.198;2023-10-31T03:21:33;10.90;99.90
8595;DHT22;4335;48.860;9.198;2023-10-31T03:24:00;10.90;99.90
8595;DHT22;4335;48.860;9.198;2023-10-31T03:26:29;10.90;99.90
8595;DHT22;4335;48.860;9.198;2023-10-31T03:28:57;10.90;99.90
8595;DHT22;4335;48.860;9.198;2023-10-31T03:31:24;10.90;99.90
8595;DHT22;4335;48.860;9.198;2023-10-31T03:33:52;10.90;99.90
8595;DHT22;4335;48.860;9.198;2023-10-31T03:36:19;10.80;99.90
8595;DHT22;4335;48.860;9.198;2023-10-31T03:38:47;10.80;99.90
8595;DHT22;4335;48.860;9.198;2023-10-31T03:41:14;10.80;99.90
8595;DHT22;4335;48.860;9.198;2023-10-31T03:43:43;10.80;99.90
8595;DHT22;4335;48.860;9.198;2023-10-31T03:46:16;10.80;99.90
8595;DHT22;4335;48.860;9.198;2023-10-31T03:48:43;10.80;99.90
8595;DHT22;4335;48.860;9.198;2023-10-31T03:51:17;10.90;99.90
8595;DHT22;4335;48.860;9.198;2023-10-31T03:53:44;10.90;99.90
8595;DHT22;4335;48.860;9.198;2023-10-31T03:56:15;10.90;99.90
8595;DHT22;4335;48.860;9.198;2023-10-31T03:58:44;11.00;99.90
8595;DHT22;4335;48.860;9.198;2023-10-31T04:01:21;11.00;99.90
8595;DHT22;4335;48.860;9.198;2023-10-31T04:03:51;11.00;99.90
8595;DHT22;4335;48.860;9.198;2023-10-31T04:06:19;10.90;99.90
8595;DHT22;4335;48.860;9.198;2023-10-31T04:08:49;10.90;99.90
8595;DHT22;4335;48.860;9.198;2023-10-31T04:11:16;11.00;99.90
8595;DHT22;4335;48.860;9.198;2023-10-31T04:13:45;10.90;99.90
8595;DHT22;4335;48.860;9.198;2023-10-31T04:16:19;10.90;99.90
8595;DHT22;4335;48.860;9.198;2023-10-31T04:18:46;11.00;99.90
8595;DHT22;4335;48.860;9.198;2023-10-31T04:21:17;11.00;99.90
8595;DHT22;4335;48.860;9.198;2023-10-31T04:23:44;11.00;99.90
8595;DHT22;4335;48.860;9.198;2023-10-31T04:26:12;11.10;99.90
8595;DHT22;4335;48.860;9.198;2023-10-31T04:28:49;11.10;99.90
8595;DHT22;4335;48.860;9.198;2023-10-31T04:31:19;11.10;99.90
8595;DHT22;4335;48.860;9.198;2023-10-31T04:33:48;11.10;99.90
8595;DHT22;4335;48.860;9.198;2023-10-31T04:36:15;11.10;99.90
8595;DHT22;4335;48.860;9.198;2023-10-31T04:38:43;11.00;99.90
8595;DHT22;4335;48.860;9.198;2023-10-31T04:41:10;11.00;99.90
8595;DHT22;4335;48.860;9.198;2023-10-31T04:43:38;10.90;99.90
8595;DHT22;4335;48.860;9.198;2023-10-31T04:46:15;10.90;99.90
8595;DHT22;4335;48.860;9.198;2023-10-31T04:48:42;10.90;99.90
8595;DHT22;4335;48.860;9.198;2023-10-31T04:51:15;10.90;99.90
8595;DHT22;4335;48.860;9.198;2023-10-31T04:53:43;10.90;99.90
8595;DHT22;4335;48.860;9.198;2023-10-31T04:56:15;10.90;99.90
8595;DHT22;4335;48.860;9.198;2023-10-31T04:58:45;10.90;99.90
8595;DHT22;4335;48.860;9.198;2023-10-31T05:01:15;10.90;99.90
8595;DHT22;4335;48.860;9.198;2023-10-31T05:03:46;10.80;99.90
8595;DHT22;4335;48.860;9.198;2023-10-31T05:06:22;10.80;99.90
8595;DHT22;4335;48.860;9.198;2023-10-31T05:08:52;10.80;99.90
8595;DHT22;4335;48.860;9.198;2023-10-31T05:11:26;10.80;99.90
8595;DHT22;4335;48.860;9.198;2023-10-31T05:13:53;10.70;99.90
8595;DHT22;4335;48.860;9.198;2023-10-31T05:16:22;10.80;99.90
8595;DHT22;4335;48.860;9.198;2023-10-31T05:18:55;10.70;99.90
8595;DHT22;4335;48.860;9.198;2023-10-31T05:21:28;10.70;99.90
8595;DHT22;4335;48.860;9.198;2023-10-31T05:23:58;10.60;99.90
8595;DHT22;4335;48.860;9.198;2023-10-31T05:26:29;10.60;99.90
8595;DHT22;4335;48.860;9.198;2023-10-31T05:28:59;10.60;99.90
8595;DHT22;4335;48.860;9.198;2023-10-31T05:31:28;10.60;99.90
8595;DHT22;4335;48.860;9.198;2023-10-31T05:33:56;10.60;99.90
8595;DHT22;4335;48.860;9.198;2023-10-31T05:36:25;10.60;99.90
8595;DHT22;4335;48.860;9.198;2023-10-31T05:38:56;10.60;99.90
8595;DHT22;4335;48.860;9.198;2023-10-31T05:41:24;10.60;99.90
8595;DHT22;4335;48.860;9.198;2023-10-31T05:43:51;10.60;99.90
8595;DHT22;4335;48.860;9.198;2023-10-31T05:46:22;10.60;99.90
8595;DHT22;4335;48.860;9.198;2023-10-31T05:48:54;10.60;99.90
8595;DHT22;4335;48.860;9.198;2023-10-31T05:51:25;10.60;99.90
8595;DHT22;4335;48.860;9.198;2023-10-31T05:53:55;10.60;99.90
8595;DHT22;4335;48.860;9.198;2023-10-31T05:56:22;10.70;99.90
8595;DHT22;4335;48.860;9.198;2023-10-31T05:58:56;10.70;99.90
8595;DHT22;4335;48.860;9.198;2023-10-31T06:01:27;10.70;99.90
8595;DHT22;4335;48.860;9.198;2023-10-31T06:03:56;10.70;99.90
8595;DHT22;4335;48.860;9.198;2023-10-31T06:06:33;10.70;99.90
8595;DHT22;4335;48.860;9.198;2023-10-31T06:09:00;10.80;99.90
8595;DHT22;4335;48.860;9.198;2023-10-31T06:11:30;10.80;99.90
8595;DHT22;4335;48.860;9.198;2023-10-31T06:13:59;10.80;99.90
8595;DHT22;4335;48.860;9.198;2023-10-31T06:16:40;10.80;99.90
8595;DHT22;4335;48.860;9.198;2023-10-31T06:19:12;10.80;99.90
8595;DHT22;4335;48.860;9.198;2023-10-31T06:21:49;10.80;99.90
8595;DHT22;4335;48.860;9.198;2023-10-31T06:24:16;10.90;99.90
8595;DHT22;4335;48.860;9.198;2023-10-31T06:26:44;10.90;99.90
8595;DHT22;4335;48.860;9.198;2023-10-31T06:29:14;10.80;99.90
8595;DHT22;4335;48.860;9.198;2023-10-31T06:31:41;10.80;99.90
8595;DHT22;4335;48.860;9.198;2023-10-31T06:34:08;10.80;99.90
8595;DHT22;4335;48.860;9.198;2023-10-31T06:36:37;10.90;99.90
8595;DHT22;4335;48.860;9.198;2023-10-31T06:39:04;10.90;99.90
8595;DHT22;4335;48.860;9.198;2023-10-31T06:41:32;11.00;99.90
8595;DHT22;4335;48.860;9.198;2023-10-31T06:44:00;11.00;99.90
8595;DHT22;4335;48.860;9.198;2023-10-31T06:46:27;11.00;99.90
8595;DHT22;4335;48.860;9.198;2023-10-31T06:48:57;11.10;99.90
8595;DHT22;4335;48.860;9.198;2023-10-31T06:51:25;11.00;99.90
8595;DHT22;4335;48.860;9.198;2023-10-31T06:53:54;11.10;99.90
8595;DHT22;4335;48.860;9.198;2023-10-31T06:56:24;11.10;99.90
8595;DHT22;4335;48.860;9.198;2023-10-31T06:58:54;11.10;99.90
8595;DHT22;4335;48.860;9.198;2023-10-31T07:01:28;11.20;99.90
8595;DHT22;4335;48.860;9.198;2023-10-31T07:03:56;11.20;99.90
8595;DHT22;4335;48.860;9.198;2023-10-31T07:06:26;11.30;99.90
8595;DHT22;4335;48.860;9.198;2023-10-31T07:08:55;11.30;99.90
8595;DHT22;4335;48.860;9.198;2023-10-31T07:11:26;11.30;99.90
8595;DHT22;4335;48.860;9.198;2023-10-31T07:13:56;11.30;99.90
8595;DHT22;4335;48.860;9.198;2023-10-31T07:16:24;11.30;99.90
8595;DHT22;4335;48.860;9.198;2023-10-31T07:18:54;11.30;99.90
8595;DHT22;4335;48.860;9.198;2023-10-31T07:21:30;11.30;99.90
8595;DHT22;4335;48.860;9.198;2023-10-31T07:24:02;11.30;99.90
8595;DHT22;4335;48.860;9.198;2023-10-31T07:26:29;11.30;99.90
8595;DHT22;4335;48.860;9.198;2023-10-31T07:28:56;11.30;99.90
8595;DHT22;4335;48.860;9.198;2023-10-31T07:31:22;11.40;99.90
8595;DHT22;4335;48.860;9.198;2023-10-31T07:33:52;11.40;99.90
8595;DHT22;4335;48.860;9.198;2023-10-31T07:36:26;11.50;99.90
8595;DHT22;4335;48.860;9.198;2023-10-31T07:38:53;11.50;99.90
8595;DHT22;4335;48.860;9.198;2023-10-31T07:41:22;11.50;99.90
8595;DHT22;4335;48.860;9.198;2023-10-31T07:43:52;11.50;99.90
8595;DHT22;4335;48.860;9.198;2023-10-31T07:46:19;11.60;99.90
8595;DHT22;4335;48.860;9.198;2023-10-31T07:48:47;11.60;99.90
8595;DHT22;4335;48.860;9.198;2023-10-31T07:51:17;11.70;99.90
8595;DHT22;4335;48.860;9.198;2023-10-31T07:53:45;11.70;99.90
8595;DHT22;4335;48.860;9.198;2023-10-31T07:56:16;11.70;99.90
8595;DHT22;4335;48.860;9.198;2023-10-31T07:58:45;11.80;99.90
8595;DHT22;4335;48.860;9.198;2023-10-31T08:01:19;11.90;99.90
8595;DHT22;4335;48.860;9.198;2023-10-31T08:03:47;11.90;99.90
8595;DHT22;4335;48.860;9.198;2023-10-31T08:06:18;12.00;99.90
8595;DHT22;4335;48.860;9.198;2023-10-31T08:08:51;12.00;99.90
8595;DHT22;4335;48.860;9.198;2023-10-31T08:11:19;12.00;99.90
8595;DHT22;4335;48.860;9.198;2023-10-31T08:13:48;12.20;99.90
8595;DHT22;4335;48.860;9.198;2023-10-31T08:16:18;12.20;99.90
8595;DHT22;4335;48.860;9.198;2023-10-31T08:18:46;12.30;99.90
8595;DHT22;4335;48.860;9.198;2023-10-31T08:21:16;12.40;99.90
8595;DHT22;4335;48.860;9.198;2023-10-31T08:23:44;12.50;99.90
8595;DHT22;4335;48.860;9.198;2023-10-31T08:26:15;12.60;99.90
8595;DHT22;4335;48.860;9.198;2023-10-31T08:28:42;12.70;99.90
8595;DHT22;4335;48.860;9.198;2023-10-31T08:31:14;12.70;99.90
8595;DHT22;4335;48.860;9.198;2023-10-31T08:33:42;12.80;99.90
8595;DHT22;4335;48.860;9.198;2023-10-31T08:36:12;12.90;99.90
8595;DHT22;4335;48.860;9.198;2023-10-31T08:38:39;12.90;99.90
8595;DHT22;4335;48.860;9.198;2023-10-31T08:41:11;13.10;99.90
8595;DHT22;4335;48.860;9.198;2023-10-31T08:43:38;13.10;99.90
8595;DHT22;4335;48.860;9.198;2023-10-31T08:46:08;13.20;99.90
8595;DHT22;4335;48.860;9.198;2023-10-31T08:48:37;13.20;99.90
8595;DHT22;4335;48.860;9.198;2023-10-31T08:51:17;13.20;99.90
8595;DHT22;4335;48.860;9.198;2023-10-31T08:53:49;13.10;99.90
8595;DHT22;4335;48.860;9.198;2023-10-31T08:56:19;13.20;99.90
8595;DHT22;4335;48.860;9.198;2023-10-31T08:58:46;13.40;99.90
8595;DHT22;4335;48.860;9.198;2023-10-31T09:01:13;13.40;99.90
8595;DHT22;4335;48.860;9.198;2023-10-31T09:03:42;13.50;99.90
8595;DHT22;4335;48.860;9.198;2023-10-31T09:06:14;13.50;99.90
8595;DHT22;4335;48.860;9.198;2023-10-31T09:08:44;13.60;99.90
8595;DHT22;4335;48.860;9.198;2023-10-31T09:11:12;13.70;99.90
8595;DHT22;4335;48.860;9.198;2023-10-31T09:13:45;13.70;99.90
8595;DHT22;4335;48.860;9.198;2023-10-31T09:16:12;13.70;99.90
8595;DHT22;4335;48.860;9.198;2023-10-31T09:18:41;13.50;99.90
8595;DHT22;4335;48.860;9.198;2023-10-31T09:21:09;13.70;99.90
8595;DHT22;4335;48.860;9.198;2023-10-31T09:23:37;13.90;99.90
8595;DHT22;4335;48.860;9.198;2023-10-31T09:26:04;14.00;99.90
8595;DHT22;4335;48.860;9.198;2023-10-31T09:28:32;14.00;99.90
8595;DHT22;4335;48.860;9.198;2023-10-31T09:30:59;14.20;99.90
8595;DHT22;4335;48.860;9.198;2023-10-31T09:33:33;14.30;99.90
8595;DHT22;4335;48.860;9.198;2023-10-31T09:36:05;14.40;99.90
8595;DHT22;4335;48.860;9.198;2023-10-31T09:38:36;14.40;99.90
8595;DHT22;4335;48.860;9.198;2023-10-31T09:41:06;14.40;99.90
8595;DHT22;4335;48.860;9.198;2023-10-31T09:43:33;14.20;99.90
8595;DHT22;4335;48.860;9.198;2023-10-31T09:46:04;14.30;99.90
8595;DHT22;4335;48.860;9.198;2023-10-31T09:48:33;14.40;99.90
8595;DHT22;4335;48.860;9.198;2023-10-31T09:51:05;14.30;99.90
8595;DHT22;4335;48.860;9.198;2023-10-31T09:53:34;14.30;99.90
8595;DHT22;4335;48.860;9.198;2023-10-31T09:56:05;14.30;99.90
8595;DHT22;4335;48.860;9.198;2023-10-31T09:58:36;14.20;99.90
8595;DHT22;4335;48.860;9.198;2023-10-31T10:01:05;14.30;99.90
8595;DHT22;4335;48.860;9.198;2023-10-31T10:03:33;14.20;99.90
8595;DHT22;4335;48.860;9.198;2023-10-31T10:06:12;14.10;99.90
8595;DHT22;4335;48.860;9.198;2023-10-31T10:08:52;14.10;99.90
8595;DHT22;4335;48.860;9.198;2023-10-31T10:11:19;13.90;99.90
8595;DHT22;4335;48.860;9.198;2023-10-31T10:13:47;13.90;99.90
8595;DHT22;4335;48.860;9.198;2023-10-31T10:16:30;14.00;99.90
8595;DHT22;4335;48.860;9.198;2023-10-31T10:19:14;13.90;99.90
8595;DHT22;4335;48.860;9.198;2023-10-31T10:21:48;13.80;99.90
8595;DHT22;4335;48.860;9.198;2023-10-31T10:24:19;13.70;99.90
8595;DHT22;4335;48.860;9.198;2023-10-31T10:26:47;13.70;99.90
8595;DHT22;4335;48.860;9.198;2023-10-31T10:29:15;13.80;99.90
8595;DHT22;4335;48.860;9.198;2023-10-31T10:31:49;13.80;99.90
8595;DHT22;4335;48.860;9.198;2023-10-31T10:34:16;13.90;99.90
8595;DHT22;4335;48.860;9.198;2023-10-31T10:36:48;13.90;99.90
8595;DHT22;4335;48.860;9.198;2023-10-31T10:39:20;14.10;99.90
8595;DHT22;4335;48.860;9.198;2023-10-31T10:41:54;14.20;99.90
8595;DHT22;4335;48.860;9.198;2023-10-31T10:44:31;14.30;99.90
8595;DHT22;4335;48.860;9.198;2023-10-31T10:46:58;14.40;99.90
8595;DHT22;4335;48.860;9.198;2023-10-31T10:49:29;14.50;99.90
8595;DHT22;4335;48.860;9.198;2023-10-31T10:52:08;14.50;99.90
8595;DHT22;4335;48.860;9.198;2023-10-31T10:54:44;14.40;99.90
8595;DHT22;4335;48.860;9.198;2023-10-31T10:57:24;14.40;99.90
8595;DHT22;4335;48.860;9.198;2023-10-31T11:00:03;14.40;99.90
8595;DHT22;4335;48.860;9.198;2023-10-31T11:02:33;14.50;99.90
8595;DHT22;4335;48.860;9.198;2023-10-31T11:05:06;14.50;99.90
8595;DHT22;4335;48.860;9.198;2023-10-31T11:07:37;14.60;99.90
8595;DHT22;4335;48.860;9.198;2023-10-31T11:10:10;14.70;99.90
8595;DHT22;4335;48.860;9.198;2023-10-31T11:12:41;14.70;99.90
8595;DHT22;4335;48.860;9.198;2023-10-31T11:15:11;14.70;99.90
8595;DHT22;4335;48.860;9.198;2023-10-31T11:17:42;14.70;99.90
8595;DHT22;4335;48.860;9.198;2023-10-31T11:20:12;14.80;99.90
8595;DHT22;4335;48.860;9.198;2023-10-31T11:22:46;14.80;99.90
8595;DHT22;4335;48.860;9.198;2023-10-31T11:25:17;14.80;99.90
8595;DHT22;4335;48.860;9.198;2023-10-31T11:27:45;14.90;99.90
8595;DHT22;4335;48.860;9.198;2023-10-31T11:30:21;14.90;99.90
8595;DHT22;4335;48.860;9.198;2023-10-31T11:32:48;14.90;99.90
8595;DHT22;4335;48.860;9.198;2023-10-31T11:35:16;14.90;99.90
8595;DHT22;4335;48.860;9.198;2023-10-31T11:37:47;14.90;99.90
8595;DHT22;4335;48.860;9.198;2023-10-31T11:40:20;14.90;99.90
8595;DHT22;4335;48.860;9.198;2023-10-31T11:42:48;14.90;99.90
8595;DHT22;4335;48.860;9.198;2023-10-31T11:45:34;14.80;99.90
8595;DHT22;4335;48.860;9.198;2023-10-31T11:48:03;14.80;99.90
8595;DHT22;4335;48.860;9.198;2023-10-31T11:50:31;14.90;99.90
8595;DHT22;4335;48.860;9.198;2023-10-31T11:53:02;14.80;99.90
8595;DHT22;4335;48.860;9.198;2023-10-31T11:55:31;14.80;99.90
8595;DHT22;4335;48.860;9.198;2023-10-31T11:58:15;14.70;99.90
8595;DHT22;4335;48.860;9.198;2023-10-31T12:00:43;14.60;99.90
8595;DHT22;4335;48.860;9.198;2023-10-31T12:03:16;14.60;99.90
8595;DHT22;4335;48.860;9.198;2023-10-31T12:05:59;14.50;99.90
8595;DHT22;4335;48.860;9.198;2023-10-31T12:08:35;14.40;99.90
8595;DHT22;4335;48.860;9.198;2023-10-31T12:11:05;14.20;99.90
8595;DHT22;4335;48.860;9.198;2023-10-31T12:13:33;14.20;99.90
8595;DHT22;4335;48.860;9.198;2023-10-31T12:16:01;14.20;99.90
8595;DHT22;4335;48.860;9.198;2023-10-31T12:18:29;14.00;99.90
8595;DHT22;4335;48.860;9.198;2023-10-31T12:20:59;14.20;99.90
8595;DHT22;4335;48.860;9.198;2023-10-31T12:23:27;14.20;99.90
8595;DHT22;4335;48.860;9.198;2023-10-31T12:25:56;14.40;99.90
8595;DHT22;4335;48.860;9.198;2023-10-31T12:28:26;14.50;99.90
8595;DHT22;4335;48.860;9.198;2023-10-31T12:30:54;14.70;99.90
8595;DHT22;4335;48.860;9.198;2023-10-31T12:33:26;14.80;99.90
8595;DHT22;4335;48.860;9.198;2023-10-31T12:35:57;15.00;99.90
8595;DHT22;4335;48.860;9.198;2023-10-31T12:38:28;15.00;99.90
8595;DHT22;4335;48.860;9.198;2023-10-31T12:41:04;14.90;99.90
8595;DHT22;4335;48.860;9.198;2023-10-31T12:43:35;14.90;99.90
8595;DHT22;4335;48.860;9.198;2023-10-31T12:46:26;14.90;99.90
8595;DHT22;4335;48.860;9.198;2023-10-31T12:48:55;14.80;99.90
8595;DHT22;4335;48.860;9.198;2023-10-31T12:51:22;14.90;99.90
8595;DHT22;4335;48.860;9.198;2023-10-31T12:53:53;14.80;99.90
8595;DHT22;4335;48.860;9.198;2023-10-31T12:56:38;14.70;99.90
8595;DHT22;4335;48.860;9.198;2023-10-31T12:59:06;14.80;99.90
8595;DHT22;4335;48.860;9.198;2023-10-31T13:01:41;14.80;99.90
8595;DHT22;4335;48.860;9.198;2023-10-31T13:04:09;14.70;99.90
8595;DHT22;4335;48.860;9.198;2023-10-31T13:06:40;14.60;99.90
8595;DHT22;4335;48.860;9.198;2023-10-31T13:09:07;14.60;99.90
8595;DHT22;4335;48.860;9.198;2023-10-31T13:11:41;14.50;99.90
8595;DHT22;4335;48.860;9.198;2023-10-31T13:14:08;14.40;99.90
8595;DHT22;4335;48.860;9.198;2023-10-31T13:16:42;14.40;99.90
8595;DHT22;4335;48.860;9.198;2023-10-31T13:19:09;14.40;99.90
8595;DHT22;4335;48.860;9.198;2023-10-31T13:21:43;14.40;99.90
8595;DHT22;4335;48.860;9.198;2023-10-31T13:24:16;14.30;99.90
8595;DHT22;4335;48.860;9.198;2023-10-31T13:26:46;14.40;99.90
8595;DHT22;4335;48.860;9.198;2023-10-31T13:29:17;14.40;99.90
8595;DHT22;4335;48.860;9.198;2023-10-31T13:31:44;14.40;99.90
8595;DHT22;4335;48.860;9.198;2023-10-31T13:34:13;14.50;99.90
8595;DHT22;4335;48.860;9.198;2023-10-31T13:36:41;14.50;99.90
8595;DHT22;4335;48.860;9.198;2023-10-31T13:39:09;14.40;99.90
8595;DHT22;4335;48.860;9.198;2023-10-31T13:41:39;14.40;99.90
8595;DHT22;4335;48.860;9.198;2023-10-31T13:44:11;14.30;99.90
8595;DHT22;4335;48.860;9.198;2023-10-31T13:46:43;14.40;99.90
8595;DHT22;4335;48.860;9.198;2023-10-31T13:49:14;14.40;99.90
8595;DHT22;4335;48.860;9.198;2023-10-31T13:51:41;14.30;99.90
8595;DHT22;4335;48.860;9.198;2023-10-31T13:54:08;14.30;99.90
8595;DHT22;4335;48.860;9.198;2023-10-31T13:56:36;14.30;99.90
8595;DHT22;4335;48.860;9.198;2023-10-31T13:59:03;14.20;99.90
8595;DHT22;4335;48.860;9.198;2023-10-31T14:01:35;14.20;99.90
8595;DHT22;4335;48.860;9.198;2023-10-31T14:04:03;14.20;99.90
8595;DHT22;4335;48.860;9.198;2023-10-31T14:06:34;14.20;99.90
8595;DHT22;4335;48.860;9.198;2023-10-31T14:09:02;14.20;99.90
8595;DHT22;4335;48.860;9.198;2023-10-31T14:11:30;14.10;99.90
8595;DHT22;4335;48.860;9.198;2023-10-31T14:14:04;14.00;99.90
8595;DHT22;4335;48.860;9.198;2023-10-31T14:16:39;14.10;99.90
8595;DHT22;4335;48.860;9.198;2023-10-31T14:19:07;14.10;99.90
8595;DHT22;4335;48.860;9.198;2023-10-31T14:21:38;14.20;99.90
8595;DHT22;4335;48.860;9.198;2023-10-31T14:24:08;14.20;99.90
8595;DHT22;4335;48.860;9.198;2023-10-31T14:26:39;14.30;99.90
8595;DHT22;4335;48.860;9.198;2023-10-31T14:32:55;14.40;99.90
8595;DHT22;4335;48.860;9.198;2023-10-31T14:35:22;14.40;99.90
8595;DHT22;4335;48.860;9.198;2023-10-31T14:37:49;14.40;99.90
8595;DHT22;4335;48.860;9.198;2023-10-31T14:40:16;14.40;99.90
8595;DHT22;4335;48.860;9.198;2023-10-31T14:42:44;14.40;99.90
8595;DHT22;4335;48.860;9.198;2023-10-31T14:45:14;14.40;99.90
8595;DHT22;4335;48.860;9.198;2023-10-31T14:47:45;14.40;99.90
8595;DHT22;4335;48.860;9.198;2023-10-31T14:50:14;14.40;99.90
8595;DHT22;4335;48.860;9.198;2023-10-31T14:52:41;14.30;99.90
8595;DHT22;4335;48.860;9.198;2023-10-31T14:55:14;14.20;99.90
8595;DHT22;4335;48.860;9.198;2023-10-31T14:57:42;14.20;99.90
8595;DHT22;4335;48.860;9.198;2023-10-31T15:00:10;14.10;99.90
8595;DHT22;4335;48.860;9.198;2023-10-31T15:02:39;14.10;99.90
8595;DHT22;4335;48.860;9.198;2023-10-31T15:05:07;14.00;99.90
8595;DHT22;4335;48.860;9.198;2023-10-31T15:07:37;14.00;99.90
8595;DHT22;4335;48.860;9.198;2023-10-31T15:10:09;13.90;99.90
8595;DHT22;4335;48.860;9.198;2023-10-31T15:12:39;13.80;99.90
8595;DHT22;4335;48.860;9.198;2023-10-31T15:15:10;13.80;99.90
8595;DHT22;4335;48.860;9.198;2023-10-31T15:17:49;13.70;99.90
8595;DHT22;4335;48.860;9.198;2023-10-31T15:20:20;13.60;99.90
8595;DHT22;4335;48.860;9.198;2023-10-31T15:22:49;13.60;99.90
8595;DHT22;4335;48.860;9.198;2023-10-31T15:25:20;13.50;99.90
8595;DHT22;4335;48.860;9.198;2023-10-31T15:27:49;13.50;99.90
8595;DHT22;4335;48.860;9.198;2023-10-31T15:30:17;13.50;99.90
8595;DHT22;4335;48.860;9.198;2023-10-31T15:32:47;13.40;99.90
8595;DHT22;4335;48.860;9.198;2023-10-31T15:35:14;13.40;99.90
8595;DHT22;4335;48.860;9.198;2023-10-31T15:37:49;13.30;99.90
8595;DHT22;4335;48.860;9.198;2023-10-31T15:40:20;13.30;99.90
8595;DHT22;4335;48.860;9.198;2023-10-31T15:42:47;13.20;99.90
8595;DHT22;4335;48.860;9.198;2023-10-31T15:45:17;13.10;99.90
8595;DHT22;4335;48.860;9.198;2023-10-31T15:47:45;13.10;99.90
8595;DHT22;4335;48.860;9.198;2023-10-31T15:50:15;13.10;99.90
8595;DHT22;4335;48.860;9.198;2023-10-31T15:52:45;13.10;99.90
8595;DHT22;4335;48.860;9.198;2023-10-31T15:55:15;13.10;99.90
8595;DHT22;4335;48.860;9.198;2023-10-31T15:57:42;13.10;99.90
8595;DHT22;4335;48.860;9.198;2023-10-31T16:00:11;13.10;99.90
8595;DHT22;4335;48.860;9.198;2023-10-31T16:02:39;13.10;99.90
8595;DHT22;4335;48.860;9.198;2023-10-31T16:05:06;13.10;99.90
8595;DHT22;4335;48.860;9.198;2023-10-31T16:07:49;13.10;99.90
8595;DHT22;4335;48.860;9.198;2023-10-31T16:10:18;13.10;99.90
8595;DHT22;4335;48.860;9.198;2023-10-31T16:12:45;13.10;99.90
8595;DHT22;4335;48.860;9.198;2023-10-31T16:15:16;13.00;99.90
8595;DHT22;4335;48.860;9.198;2023-10-31T16:17:43;13.00;99.90
8595;DHT22;4335;48.860;9.198;2023-10-31T16:20:11;13.00;99.90
8595;DHT22;4335;48.860;9.198;2023-10-31T16:22:44;13.00;99.90
8595;DHT22;4335;48.860;9.198;2023-10-31T16:25:13;13.00;99.90